Time;durP1;ratioP1;P1;durP2;ratioP2;P2;SDS_P1;SDS_P2;PMS_P1;PMS_P2;Temp;Humidity;BMP_temperature;BMP_pressure;BME280_temperature;BME280_humidity;BME280_pressure;Samples;Min_cycle;Max_cycle;Signal;HPM_P1;HPM_P2
2021/12/09 00:02:20;;;;;;;7.93;3.45;;;8.10;69.80;;;;;;4968027;28;20042;-92
2021/12/09 00:04:47;;;;;;;8.50;3.45;;;8.10;69.80;;;;;;4974316;28;20033;-92
2021/12/09 00:07:14;;;;;;;6.65;2.78;;;8.20;69.80;;;;;;4981178;28;20404;-91
2021/12/09 00:09:40;;;;;;;13.75;6.10;;;8.10;69.70;;;;;;4981301;28;20034;-91
2021/12/09 00:12:07;;;;;;;9.60;3.80;;;8.10;69.70;;;;;;4965191;28;20048;-93
2021/12/09 00:14:35;;;;;;;13.93;6.50;;;8.10;70.20;;;;;;4993587;28;20026;-92
2021/12/09 00:17:06;;;;;;;15.93;6.93;;;8.10;70.10;;;;;;4970863;28;20021;-92
2021/12/09 00:19:34;;;;;;;4.50;1.98;;;8.10;69.60;;;;;;4978923;28;20046;-91
2021/12/09 00:22:01;;;;;;;4.07;1.85;;;8.10;69.70;;;;;;4965938;28;20030;-89
2021/12/09 00:24:27;;;;;;;4.60;2.20;;;8.50;69.90;;;;;;4964729;28;20061;-90
2021/12/09 00:26:54;;;;;;;7.95;3.17;;;8.10;69.70;;;;;;4996194;28;20089;-89
2021/12/09 00:29:20;;;;;;;9.05;4.15;;;8.00;69.60;;;;;;4985939;28;20036;-92
2021/12/09 00:31:49;;;;;;;7.35;3.35;;;8.00;69.70;;;;;;4973098;28;20052;-90
2021/12/09 00:34:19;;;;;;;9.48;2.75;;;8.00;69.70;;;;;;4955542;28;20030;-93
2021/12/09 00:36:57;;;;;;;5.47;2.17;;;8.40;69.90;;;;;;4984469;28;20033;-93
2021/12/09 00:39:23;;;;;;;9.00;3.85;;;8.00;69.70;;;;;;4971778;28;20105;-92
2021/12/09 00:41:49;;;;;;;6.72;3.50;;;8.00;69.70;;;;;;5000470;28;20076;-93
2021/12/09 00:44:15;;;;;;;13.15;6.13;;;8.40;69.90;;;;;;4980301;28;20459;-92
2021/12/09 00:46:41;;;;;;;10.30;5.45;;;8.00;69.70;;;;;;5016051;28;20033;-91
2021/12/09 00:49:07;;;;;;;5.05;2.95;;;8.00;69.70;;;;;;5000388;28;20045;-88
2021/12/09 00:51:36;;;;;;;4.72;1.90;;;8.40;69.80;;;;;;5003256;28;20037;-91
2021/12/09 00:54:03;;;;;;;8.25;4.55;;;8.00;70.20;;;;;;4986353;28;20079;-93
2021/12/09 00:56:29;;;;;;;13.13;4.85;;;8.00;69.60;;;;;;4970308;28;20091;-93
2021/12/09 00:58:55;;;;;;;6.15;2.88;;;8.10;69.70;;;;;;4982616;28;20503;-93
2021/12/09 01:01:23;;;;;;;7.18;2.55;;;8.10;69.70;;;;;;4988196;28;20036;-91
2021/12/09 01:03:49;;;;;;;7.20;1.90;;;8.40;69.80;;;;;;4981605;28;20137;-92
2021/12/09 01:06:15;;;;;;;4.40;1.80;;;8.50;69.80;;;;;;4976621;28;20031;-93
2021/12/09 01:08:42;;;;;;;5.95;1.95;;;8.40;69.80;;;;;;4958674;28;20381;-91
2021/12/09 01:11:10;;;;;;;4.32;1.70;;;8.10;69.60;;;;;;4963716;28;20022;-93
2021/12/09 01:13:36;;;;;;;4.82;1.33;;;8.10;69.60;;;;;;4990322;28;20030;-91
2021/12/09 01:16:02;;;;;;;3.30;1.58;;;8.10;69.70;;;;;;4980680;28;20046;-91
2021/12/09 01:18:28;;;;;;;9.32;2.63;;;8.20;69.60;;;;;;4972187;28;20128;-92
2021/12/09 01:20:54;;;;;;;3.47;1.42;;;8.30;69.70;;;;;;4972211;28;20052;-91
2021/12/09 01:23:20;;;;;;;7.38;1.65;;;8.20;69.60;;;;;;4967602;28;20093;-91
2021/12/09 01:25:47;;;;;;;2.63;1.20;;;8.50;69.80;;;;;;4980590;28;20503;-93
2021/12/09 01:28:21;;;;;;;4.25;1.60;;;8.20;69.50;;;;;;4960307;28;20562;-92
2021/12/09 01:30:49;;;;;;;4.20;1.27;;;8.60;69.80;;;;;;4978412;28;20109;-88
2021/12/09 01:33:15;;;;;;;2.95;0.90;;;8.40;69.70;;;;;;4979595;28;20041;-92
2021/12/09 01:35:47;;;;;;;5.00;1.30;;;8.20;69.50;;;;;;4993212;28;20028;-95
2021/12/09 01:38:16;;;;;;;3.08;1.23;;;8.60;69.70;;;;;;4983599;28;20879;-94
2021/12/09 01:40:42;;;;;;;5.65;1.10;;;8.20;69.60;;;;;;4979380;28;20068;-94
2021/12/09 01:43:08;;;;;;;4.30;1.20;;;8.20;69.50;;;;;;4962275;28;20233;-96
2021/12/09 01:45:34;;;;;;;3.55;0.90;;;8.40;69.70;;;;;;4980288;28;20486;-94
2021/12/09 01:48:00;;;;;;;3.70;1.13;;;8.20;69.60;;;;;;4970288;28;20030;-90
2021/12/09 01:50:27;;;;;;;3.05;1.00;;;8.20;70.20;;;;;;4967893;28;20029;-95
2021/12/09 01:52:52;;;;;;;1.90;0.93;;;8.20;69.70;;;;;;4964038;28;20567;-94
2021/12/09 01:55:19;;;;;;;2.45;1.00;;;8.20;69.80;;;;;;4970673;28;20271;-95
2021/12/09 01:57:48;;;;;;;6.78;1.10;;;8.70;70.00;;;;;;4985754;28;20152;-95
2021/12/09 02:00:22;;;;;;;3.40;1.27;;;8.50;69.80;;;;;;4970286;28;21088;-92
2021/12/09 02:02:47;;;;;;;4.35;1.20;;;8.20;69.70;;;;;;4985730;28;20042;-95
2021/12/09 02:05:14;;;;;;;2.38;0.90;;;8.20;69.70;;;;;;4981876;28;20518;-95
2021/12/09 02:07:40;;;;;;;5.93;1.15;;;8.20;69.60;;;;;;4967038;28;20079;-94
2021/12/09 02:10:13;;;;;;;5.35;0.98;;;8.20;69.60;;;;;;4975812;28;20037;-96
2021/12/09 02:12:39;;;;;;;4.47;1.23;;;8.10;69.50;;;;;;4985429;28;20038;-93
2021/12/09 02:15:06;;;;;;;3.22;0.70;;;8.10;69.60;;;;;;4992287;28;20048;-91
2021/12/09 02:17:33;;;;;;;4.65;1.05;;;8.10;69.60;;;;;;4990457;28;20072;-92
2021/12/09 02:20:03;;;;;;;6.82;0.85;;;8.10;69.80;;;;;;4985415;28;20042;-92
2021/12/09 02:22:30;;;;;;;3.78;1.30;;;8.10;69.70;;;;;;5001386;28;20033;-92
2021/12/09 02:24:56;;;;;;;2.10;1.00;;;8.10;69.80;;;;;;5007805;28;20087;-89
2021/12/09 02:27:24;;;;;;;3.80;1.00;;;8.10;69.80;;;;;;4965445;28;20057;-92
2021/12/09 02:29:51;;;;;;;6.65;1.38;;;8.00;69.80;;;;;;5003065;28;20033;-91
2021/12/09 02:32:18;;;;;;;4.30;0.95;;;8.10;69.80;;;;;;4989692;28;20146;-92
2021/12/09 02:34:44;;;;;;;2.38;0.98;;;8.10;69.80;;;;;;4993537;28;20034;-92
2021/12/09 02:37:13;;;;;;;8.05;2.35;;;8.10;69.90;;;;;;4981083;28;20025;-90
2021/12/09 02:39:42;;;;;;;87.28;15.98;;;8.00;69.80;;;;;;4990293;28;20042;-90
2021/12/09 02:42:09;;;;;;;43.60;9.82;;;8.00;69.80;;;;;;4981392;28;20032;-93
2021/12/09 02:44:35;;;;;;;119.40;24.55;;;8.00;69.80;;;;;;4975132;28;20120;-91
2021/12/09 02:47:00;;;;;;;56.40;12.73;;;8.40;70.00;;;;;;4983115;28;20034;-92
2021/12/09 02:49:29;;;;;;;48.78;12.82;;;8.00;69.80;;;;;;4983440;28;20034;-92
2021/12/09 02:51:57;;;;;;;27.27;6.93;;;8.30;70.00;;;;;;4975692;28;20033;-88
2021/12/09 02:54:25;;;;;;;62.88;17.48;;;8.00;69.80;;;;;;4971295;28;20030;-89
2021/12/09 02:56:55;;;;;;;23.73;6.45;;;8.40;70.10;;;;;;4981560;28;20038;-93
2021/12/09 02:59:21;;;;;;;11.95;4.90;;;7.90;69.80;;;;;;4964231;28;20045;-92
2021/12/09 03:01:59;;;;;;;10.40;3.60;;;7.90;69.90;;;;;;4985752;28;20037;-92
2021/12/09 03:04:37;;;;;;;19.08;6.40;;;8.30;70.00;;;;;;4977663;28;20037;-92
2021/12/09 03:07:11;;;;;;;14.57;5.03;;;7.90;69.90;;;;;;4981158;28;20407;-93
2021/12/09 03:09:37;;;;;;;18.40;6.78;;;7.90;69.90;;;;;;4981462;28;20121;-93
2021/12/09 03:12:06;;;;;;;17.30;4.57;;;7.90;70.00;;;;;;4968473;28;20125;-91
2021/12/09 03:14:32;;;;;;;17.30;5.63;;;7.80;70.10;;;;;;4980791;28;20040;-92
2021/12/09 03:16:58;;;;;;;15.75;5.30;;;7.80;70.10;;;;;;4978111;28;20124;-93
2021/12/09 03:19:24;;;;;;;17.73;7.18;;;7.80;70.10;;;;;;4966424;28;20058;-94
2021/12/09 03:21:50;;;;;;;7.68;3.30;;;7.80;70.20;;;;;;4969123;28;20064;-89
2021/12/09 03:24:18;;;;;;;31.15;10.00;;;7.80;70.30;;;;;;4973350;28;20033;-92
2021/12/09 03:26:50;;;;;;;18.20;6.95;;;7.80;70.20;;;;;;4972471;28;20070;-92
2021/12/09 03:29:18;;;;;;;24.50;9.13;;;7.80;70.30;;;;;;4966282;28;20037;-91
2021/12/09 03:31:47;;;;;;;6.22;2.63;;;7.80;70.20;;;;;;4965337;28;20022;-92
2021/12/09 03:34:14;;;;;;;16.95;5.82;;;7.80;70.30;;;;;;4988922;28;20029;-93
2021/12/09 03:36:41;;;;;;;9.77;4.60;;;7.80;70.30;;;;;;4974385;28;20033;-93
2021/12/09 03:39:17;;;;;;;22.90;7.68;;;7.80;70.80;;;;;;4967833;28;20524;-93
2021/12/09 03:41:46;;;;;;;28.40;9.80;;;8.10;70.40;;;;;;4977099;28;20034;-93
2021/12/09 03:44:12;;;;;;;26.08;9.88;;;7.80;70.40;;;;;;4984039;28;20042;-92
2021/12/09 03:46:38;;;;;;;7.57;3.25;;;7.80;70.40;;;;;;4980696;28;20037;-93
2021/12/09 03:49:05;;;;;;;22.17;8.90;;;7.80;70.40;;;;;;4984193;28;20030;-93
2021/12/09 03:51:31;;;;;;;25.10;9.48;;;7.80;70.40;;;;;;4983706;28;20026;-88
2021/12/09 03:53:57;;;;;;;17.90;6.38;;;8.20;70.70;;;;;;5003728;28;20028;-91
2021/12/09 03:56:23;;;;;;;5.78;2.85;;;7.80;70.50;;;;;;4998138;28;20038;-93
2021/12/09 03:58:49;;;;;;;27.50;9.77;;;7.80;70.50;;;;;;4990843;28;20841;-92
2021/12/09 04:01:15;;;;;;;20.55;7.95;;;8.10;70.70;;;;;;4979761;28;20068;-89
2021/12/09 04:03:41;;;;;;;10.90;5.03;;;7.80;70.50;;;;;;4987995;28;21902;-93
2021/12/09 04:06:06;;;;;;;14.07;5.82;;;8.20;70.80;;;;;;4970731;28;20401;-93
2021/12/09 04:08:33;;;;;;;20.08;5.75;;;7.80;70.60;;;;;;4966616;28;20507;-90
2021/12/09 04:10:59;;;;;;;10.43;4.65;;;8.10;70.70;;;;;;4980664;28;20518;-92
2021/12/09 04:13:24;;;;;;;13.15;5.63;;;7.70;70.50;;;;;;4977331;28;20065;-89
2021/12/09 04:15:50;;;;;;;14.98;5.57;;;7.70;70.50;;;;;;4964862;28;20121;-90
2021/12/09 04:18:16;;;;;;;13.25;5.97;;;7.70;70.60;;;;;;4965441;28;20503;-93
2021/12/09 04:20:42;;;;;;;19.52;7.40;;;7.70;70.70;;;;;;4952912;28;20045;-93
2021/12/09 04:23:08;;;;;;;23.70;8.30;;;8.00;71.00;;;;;;4963243;28;20483;-92
2021/12/09 04:25:34;;;;;;;17.92;6.88;;;7.70;70.80;;;;;;4970432;28;20022;-91
2021/12/09 04:28:00;;;;;;;26.10;9.88;;;7.70;70.80;;;;;;4969990;28;20048;-91
2021/12/09 04:30:26;;;;;;;15.35;5.30;;;7.70;70.80;;;;;;4965835;28;20034;-88
2021/12/09 04:32:53;;;;;;;15.15;6.75;;;7.70;71.40;;;;;;4950205;28;20030;-92
2021/12/09 04:35:21;;;;;;;10.30;3.92;;;7.70;70.80;;;;;;4962498;28;20637;-92
2021/12/09 04:37:47;;;;;;;17.05;7.28;;;7.70;70.80;;;;;;4951855;28;20114;-93
2021/12/09 04:40:16;;;;;;;8.32;2.88;;;8.30;71.20;;;;;;4964291;28;20480;-91
2021/12/09 04:42:42;;;;;;;10.65;5.00;;;7.70;70.90;;;;;;4958235;28;20026;-91
2021/12/09 04:45:09;;;;;;;12.82;4.88;;;7.70;70.90;;;;;;4948857;28;20489;-93
2021/12/09 04:47:35;;;;;;;8.10;2.75;;;7.70;70.80;;;;;;4969478;28;20086;-94
2021/12/09 04:50:04;;;;;;;8.57;3.45;;;7.70;70.90;;;;;;4963820;28;20058;-93
2021/12/09 04:52:30;;;;;;;24.63;8.98;;;8.00;70.90;;;;;;4965467;28;20018;-92
2021/12/09 04:54:55;;;;;;;6.65;2.40;;;7.70;70.80;;;;;;4946764;28;20491;-88
2021/12/09 04:57:21;;;;;;;12.52;4.68;;;8.20;71.20;;;;;;4941607;28;20115;-92
2021/12/09 04:59:48;;;;;;;13.13;5.50;;;7.70;70.90;;;;;;4956884;28;20500;-93
2021/12/09 05:02:25;;;;;;;14.75;6.32;;;7.70;70.80;;;;;;4944705;28;20035;-92
2021/12/09 05:04:51;;;;;;;11.88;5.07;;;8.10;71.00;;;;;;4965150;28;20581;-94
2021/12/09 05:07:17;;;;;;;15.25;4.93;;;7.70;70.90;;;;;;4960190;28;20345;-93
2021/12/09 05:09:50;;;;;;;8.30;3.40;;;8.10;71.10;;;;;;4966279;28;20041;-93
2021/12/09 05:12:17;;;;;;;4.88;2.63;;;7.70;70.90;;;;;;4955173;28;20045;-93
2021/12/09 05:14:47;;;;;;;8.00;2.40;;;8.20;71.10;;;;;;4954215;28;20098;-92
2021/12/09 05:17:16;;;;;;;5.50;2.40;;;7.60;70.90;;;;;;4957403;28;20510;-92
2021/12/09 05:19:42;;;;;;;7.50;2.95;;;7.70;71.00;;;;;;4956346;28;20507;-92
2021/12/09 05:22:08;;;;;;;9.02;2.38;;;7.70;70.90;;;;;;4975066;28;20375;-93
2021/12/09 05:24:34;;;;;;;5.35;1.90;;;7.60;71.00;;;;;;4976584;28;20034;-92
2021/12/09 05:27:01;;;;;;;6.53;3.15;;;7.70;71.00;;;;;;4990428;28;20021;-92
2021/12/09 05:29:32;;;;;;;6.03;2.75;;;7.70;71.00;;;;;;4989891;28;20036;-92
2021/12/09 05:32:08;;;;;;;2.85;1.55;;;7.70;70.90;;;;;;5011655;28;20887;-92
2021/12/09 05:34:37;;;;;;;5.30;2.20;;;7.60;70.80;;;;;;4997378;28;20026;-92
2021/12/09 05:37:06;;;;;;;6.10;2.10;;;8.00;71.10;;;;;;4988141;28;20037;-91
2021/12/09 05:39:32;;;;;;;3.13;1.80;;;7.70;70.90;;;;;;4984118;28;20422;-89
2021/12/09 05:41:59;;;;;;;1.70;1.02;;;7.60;71.00;;;;;;4970196;28;20040;-93
2021/12/09 05:44:25;;;;;;;5.72;1.75;;;7.60;70.90;;;;;;4973291;28;20083;-93
2021/12/09 05:46:51;;;;;;;3.88;1.80;;;7.60;70.90;;;;;;4987695;28;20026;-93
2021/12/09 05:49:17;;;;;;;8.13;2.60;;;7.60;70.90;;;;;;4981852;28;20261;-91
2021/12/09 05:51:44;;;;;;;5.68;2.05;;;7.60;70.90;;;;;;4980059;28;20065;-89
2021/12/09 05:54:10;;;;;;;10.63;6.75;;;7.60;71.00;;;;;;4964884;28;20022;-95
2021/12/09 05:56:36;;;;;;;6.57;2.17;;;7.60;70.90;;;;;;4967514;28;20038;-96
2021/12/09 05:59:04;;;;;;;8.68;2.22;;;7.60;71.00;;;;;;4967467;28;20034;-93
2021/12/09 06:01:30;;;;;;;6.47;2.00;;;7.60;70.90;;;;;;4978761;28;20031;-93
2021/12/09 06:03:56;;;;;;;4.00;2.08;;;7.60;71.00;;;;;;4979580;28;20041;-95
2021/12/09 06:06:21;;;;;;;10.75;1.77;;;7.60;71.00;;;;;;4971552;28;20033;-94
2021/12/09 06:08:47;;;;;;;4.93;2.30;;;7.60;70.90;;;;;;4989186;28;20124;-94
2021/12/09 06:11:14;;;;;;;13.25;1.83;;;7.60;70.90;;;;;;4972894;28;20038;-91
2021/12/09 06:13:40;;;;;;;5.60;1.73;;;7.60;70.90;;;;;;4992059;28;20029;-95
2021/12/09 06:16:08;;;;;;;3.63;1.73;;;7.60;70.90;;;;;;4978864;28;20034;-96
2021/12/09 06:18:34;;;;;;;10.70;2.78;;;7.60;70.80;;;;;;4964401;28;20080;-95
2021/12/09 06:21:00;;;;;;;12.80;3.42;;;7.60;70.90;;;;;;4972705;28;20140;-95
2021/12/09 06:23:26;;;;;;;13.65;3.03;;;7.90;71.10;;;;;;4992997;28;20026;-95
2021/12/09 06:25:51;;;;;;;20.83;7.35;;;7.60;71.00;;;;;;4966199;28;20042;-93
2021/12/09 06:28:18;;;;;;;20.58;6.70;;;7.60;70.90;;;;;;4965300;28;20198;-94
2021/12/09 06:30:45;;;;;;;21.13;7.85;;;7.90;71.00;;;;;;4973612;28;20068;-95
2021/12/09 06:33:11;;;;;;;17.45;7.57;;;7.90;71.00;;;;;;4986530;28;20037;-91
2021/12/09 06:35:37;;;;;;;18.23;5.88;;;7.50;70.80;;;;;;4980851;28;20081;-94
2021/12/09 06:38:05;;;;;;;19.70;8.38;;;7.50;70.90;;;;;;4970613;28;20072;-92
2021/12/09 06:40:31;;;;;;;33.78;13.27;;;7.70;70.90;;;;;;4986756;28;20248;-95
2021/12/09 06:42:57;;;;;;;23.88;9.82;;;7.50;70.90;;;;;;4981209;28;20033;-95
2021/12/09 06:45:24;;;;;;;38.05;12.85;;;7.50;70.90;;;;;;4970868;28;20688;-93
2021/12/09 06:47:50;;;;;;;22.27;9.55;;;7.50;70.90;;;;;;4970388;28;20026;-96
2021/12/09 06:50:19;;;;;;;28.77;10.43;;;7.50;71.40;;;;;;4971595;28;20029;-95
2021/12/09 06:52:45;;;;;;;32.35;11.13;;;7.50;70.80;;;;;;4969361;28;20037;-96
2021/12/09 06:55:14;;;;;;;19.38;7.20;;;7.50;70.80;;;;;;4970024;28;20032;-94
2021/12/09 06:57:44;;;;;;;12.95;5.47;;;7.50;70.90;;;;;;4977909;28;20078;-94
2021/12/09 07:00:14;;;;;;;19.90;7.93;;;7.40;70.90;;;;;;4974746;28;20443;-91
2021/12/09 07:02:41;;;;;;;15.30;5.18;;;7.50;71.00;;;;;;4986271;28;20072;-93
2021/12/09 07:05:08;;;;;;;24.42;8.63;;;7.40;70.90;;;;;;4978089;28;20511;-92
2021/12/09 07:07:34;;;;;;;8.60;4.03;;;7.40;70.90;;;;;;4974469;28;20078;-90
2021/12/09 07:10:00;;;;;;;25.45;8.23;;;7.40;71.00;;;;;;4965690;28;20089;-94
2021/12/09 07:12:26;;;;;;;21.35;7.25;;;7.40;71.00;;;;;;4979822;28;20037;-96
2021/12/09 07:14:52;;;;;;;23.08;8.35;;;7.40;71.00;;;;;;4986909;28;20029;-95
2021/12/09 07:17:17;;;;;;;19.63;6.00;;;7.40;71.00;;;;;;4966587;28;20553;-92
2021/12/09 07:19:43;;;;;;;13.35;5.55;;;7.50;71.60;;;;;;4983594;28;20044;-96
2021/12/09 07:22:09;;;;;;;18.73;5.78;;;7.40;70.90;;;;;;4967687;28;20068;-95
2021/12/09 07:24:35;;;;;;;10.70;4.00;;;7.70;71.10;;;;;;4965936;28;20037;-96
2021/12/09 07:27:01;;;;;;;23.77;7.82;;;7.40;70.90;;;;;;4977826;28;20084;-95
2021/12/09 07:29:28;;;;;;;54.50;13.55;;;7.40;70.80;;;;;;4985430;28;20018;-94
2021/12/09 07:31:54;;;;;;;51.33;12.65;;;7.40;70.80;;;;;;4969763;28;20104;-94
2021/12/09 07:34:21;;;;;;;9.52;4.68;;;7.70;71.00;;;;;;4965580;28;20126;-95
2021/12/09 07:36:47;;;;;;;24.58;7.15;;;7.40;70.90;;;;;;4984580;28;20496;-96
2021/12/09 07:39:12;;;;;;;66.20;20.67;;;7.40;70.90;;;;;;4983259;28;20032;-92
2021/12/09 07:41:38;;;;;;;34.70;11.88;;;7.40;70.80;;;;;;4979306;28;20049;-93
2021/12/09 07:44:05;;;;;;;31.35;10.60;;;7.30;70.80;;;;;;4981118;28;20033;-93
2021/12/09 07:46:35;;;;;;;20.65;7.28;;;7.30;70.70;;;;;;4983578;28;20049;-94
2021/12/09 07:49:01;;;;;;;7.00;2.58;;;7.60;70.90;;;;;;4969495;28;20030;-94
2021/12/09 07:51:27;;;;;;;28.17;11.18;;;7.30;70.70;;;;;;4966928;28;20033;-94
2021/12/09 07:53:53;;;;;;;9.45;4.18;;;7.30;70.80;;;;;;4965434;28;20096;-92
2021/12/09 07:56:19;;;;;;;13.57;6.05;;;7.60;71.00;;;;;;4979596;28;20119;-89
2021/12/09 07:58:45;;;;;;;25.60;9.52;;;7.90;71.70;;;;;;4981067;28;20389;-94
2021/12/09 08:01:11;;;;;;;20.23;9.25;;;7.30;70.80;;;;;;4977288;28;20042;-92
2021/12/09 08:03:37;;;;;;;34.17;13.13;;;7.70;71.00;;;;;;4973548;28;20105;-93
2021/12/09 08:06:04;;;;;;;18.83;7.85;;;7.30;70.80;;;;;;4982213;28;20474;-93
2021/12/09 08:08:29;;;;;;;18.08;7.72;;;7.80;71.10;;;;;;4968916;28;20018;-94
2021/12/09 08:10:55;;;;;;;6.45;2.42;;;7.30;71.50;;;;;;4977939;28;20408;-92
2021/12/09 08:13:23;;;;;;;15.35;5.35;;;7.70;71.20;;;;;;4970710;28;20080;-93
2021/12/09 08:15:51;;;;;;;13.45;4.03;;;7.30;70.90;;;;;;4980658;28;20372;-94
2021/12/09 08:20:48;;;;;;;14.68;6.35;;;7.30;70.90;;;;;;4969427;28;20055;-94
2021/12/09 08:23:15;;;;;;;11.10;4.63;;;7.50;70.90;;;;;;4965227;28;20022;-94
2021/12/09 08:25:42;;;;;;;8.85;2.83;;;7.70;71.10;;;;;;4962599;28;20070;-93
2021/12/09 08:28:08;;;;;;;6.63;3.25;;;7.30;70.90;;;;;;4965251;28;20046;-94
2021/12/09 08:30:36;;;;;;;8.55;2.50;;;7.30;70.90;;;;;;4948483;28;20033;-91
2021/12/09 08:33:04;;;;;;;14.20;4.60;;;7.30;71.40;;;;;;4969432;28;20078;-89
2021/12/09 08:35:29;;;;;;;7.00;2.90;;;7.70;71.10;;;;;;4984730;28;20111;-90
2021/12/09 08:37:58;;;;;;;8.63;1.90;;;7.70;71.60;;;;;;4960830;28;20070;-93
2021/12/09 08:40:25;;;;;;;10.30;3.58;;;7.30;70.80;;;;;;4952109;28;20046;-94
2021/12/09 08:42:52;;;;;;;6.25;3.28;;;7.30;70.80;;;;;;4948895;28;20046;-94
2021/12/09 08:45:19;;;;;;;3.53;1.88;;;7.70;71.00;;;;;;4946350;28;20034;-93
2021/12/09 08:47:45;;;;;;;8.70;2.75;;;7.30;70.80;;;;;;4967391;28;20058;-95
2021/12/09 08:50:15;;;;;;;11.48;4.00;;;7.30;70.90;;;;;;4954290;28;20107;-96
2021/12/09 08:52:42;;;;;;;7.20;2.10;;;7.80;71.10;;;;;;4966231;28;20035;-96
2021/12/09 08:55:09;;;;;;;9.55;3.03;;;7.80;71.20;;;;;;4944585;28;20033;-96
2021/12/09 08:57:37;;;;;;;15.38;5.90;;;7.30;70.90;;;;;;4960298;28;20034;-96
2021/12/09 09:00:11;;;;;;;8.90;3.75;;;7.60;71.20;;;;;;4961910;28;20022;-93
2021/12/09 09:02:42;;;;;;;23.80;8.00;;;7.30;71.00;;;;;;4965038;28;20035;-95
2021/12/09 09:05:11;;;;;;;31.13;10.07;;;7.70;71.30;;;;;;4969695;28;20042;-96
2021/12/09 09:07:48;;;;;;;24.23;8.70;;;7.30;71.00;;;;;;4973792;28;20823;-95
2021/12/09 09:10:18;;;;;;;26.10;7.85;;;7.30;71.00;;;;;;4967066;28;20129;-96
2021/12/09 09:12:45;;;;;;;16.98;5.88;;;7.30;71.10;;;;;;4949065;28;20066;-96
2021/12/09 09:15:15;;;;;;;17.40;6.53;;;7.30;71.20;;;;;;4965471;28;20061;-96
2021/12/09 09:17:41;;;;;;;18.27;6.78;;;7.40;71.30;;;;;;4988674;28;20037;-96
2021/12/09 09:20:11;;;;;;;11.50;3.60;;;7.80;71.60;;;;;;4975372;28;20046;-95
2021/12/09 09:22:38;;;;;;;10.85;3.42;;;7.30;71.30;;;;;;4985632;28;20113;-96
2021/12/09 09:25:07;;;;;;;12.18;4.28;;;7.50;71.40;;;;;;4984430;28;20044;-94
2021/12/09 09:27:33;;;;;;;14.93;3.90;;;7.40;71.40;;;;;;4975067;28;20140;-90
2021/12/09 09:29:59;;;;;;;17.10;4.97;;;7.40;71.40;;;;;;4971059;28;20529;-93
2021/12/09 09:32:25;;;;;;;10.68;3.55;;;7.40;71.50;;;;;;4985163;28;20033;-89
2021/12/09 09:34:53;;;;;;;16.20;5.70;;;7.50;71.60;;;;;;4977433;28;20120;-92
2021/12/09 09:37:20;;;;;;;8.50;3.55;;;7.40;71.50;;;;;;4970397;28;20703;-93
2021/12/09 09:39:47;;;;;;;91.28;30.90;;;7.90;71.80;;;;;;4974871;28;20034;-94
2021/12/09 09:44:49;;;;;;;5.93;2.70;;;7.50;71.60;;;;;;4993633;28;20088;-93
2021/12/09 09:47:16;;;;;;;9.20;3.05;;;7.90;71.80;;;;;;4993467;28;20474;-93
2021/12/09 09:49:42;;;;;;;28.85;9.27;;;7.50;71.70;;;;;;4974985;28;20030;-93
2021/12/09 09:52:10;;;;;;;11.25;4.95;;;7.50;72.30;;;;;;4976348;28;20385;-93
2021/12/09 09:54:38;;;;;;;10.05;3.30;;;7.60;71.70;;;;;;4994232;28;20021;-89
2021/12/09 09:57:05;;;;;;;19.15;8.55;;;7.60;71.70;;;;;;5009354;28;20030;-88
2021/12/09 09:59:31;;;;;;;8.80;3.67;;;7.60;71.80;;;;;;5008007;28;20034;-88
2021/12/09 10:01:57;;;;;;;7.28;2.35;;;7.60;71.80;;;;;;5003787;28;20054;-93
2021/12/09 10:07:01;;;;;;;13.32;5.07;;;7.70;71.80;;;;;;5021317;28;20132;-90
2021/12/09 10:09:27;;;;;;;6.32;2.75;;;7.70;71.80;;;;;;4992184;28;20049;-93
2021/12/09 10:11:55;;;;;;;13.45;4.57;;;7.70;71.90;;;;;;4986352;28;20030;-93
2021/12/09 10:14:29;;;;;;;16.13;8.40;;;7.70;71.90;;;;;;4989798;28;20044;-93
2021/12/09 10:17:07;;;;;;;8.10;2.88;;;7.70;72.10;;;;;;4993193;28;20530;-93
2021/12/09 10:19:37;;;;;;;11.35;5.03;;;8.00;72.10;;;;;;5006681;28;20429;-91
2021/12/09 10:22:06;;;;;;;7.97;3.38;;;7.70;72.00;;;;;;4970890;28;20037;-90
2021/12/09 10:24:32;;;;;;;6.50;2.42;;;8.20;72.30;;;;;;4975545;28;20034;-92
2021/12/09 10:26:58;;;;;;;9.70;2.55;;;8.10;72.30;;;;;;4972039;28;20534;-92
2021/12/09 10:29:34;;;;;;;5.45;2.40;;;7.70;72.10;;;;;;4956137;28;20030;-94
2021/12/09 10:32:10;;;;;;;5.03;2.10;;;7.70;72.20;;;;;;4971913;28;20058;-93
2021/12/09 10:34:46;;;;;;;6.57;2.28;;;7.70;72.20;;;;;;4973228;28;20054;-95
2021/12/09 10:37:20;;;;;;;6.85;2.50;;;7.80;72.30;;;;;;4954804;28;20038;-92
2021/12/09 10:39:50;;;;;;;7.53;2.13;;;7.70;72.30;;;;;;4994584;28;20029;-94
2021/12/09 10:42:49;;;;;;;7.80;2.10;;;7.90;72.50;;;;;;4991430;28;20092;-94
2021/12/09 10:45:29;;;;;;;6.68;2.58;;;7.80;72.60;;;;;;4956713;28;20596;-93
2021/12/09 10:53:51;;;;;;;7.78;2.30;;;7.80;72.70;;;;;;4978683;28;20543;-95
2021/12/09 10:56:35;;;;;;;8.02;2.47;;;7.80;72.80;;;;;;4974825;28;20041;-95
2021/12/09 10:59:02;;;;;;;8.70;3.10;;;7.80;72.90;;;;;;4957099;28;20029;-91
2021/12/09 11:01:28;;;;;;;4.53;1.98;;;7.90;72.90;;;;;;4951174;28;20317;-88
2021/12/09 11:04:00;;;;;;;9.20;2.92;;;8.30;73.10;;;;;;4973675;28;20015;-89
2021/12/09 11:06:32;;;;;;;4.68;1.65;;;7.90;72.90;;;;;;4955199;28;20034;-93
2021/12/09 11:09:00;;;;;;;9.15;3.20;;;7.90;73.00;;;;;;4974678;28;20033;-96
2021/12/09 11:11:42;;;;;;;4.22;1.90;;;8.00;73.10;;;;;;4972066;28;20030;-96
2021/12/09 11:14:17;;;;;;;7.55;2.28;;;8.40;73.40;;;;;;4966596;28;20022;-92
2021/12/09 11:17:13;;;;;;;5.15;2.63;;;8.40;73.40;;;;;;4970848;28;20050;-94
2021/12/09 11:19:47;;;;;;;10.63;2.67;;;8.00;73.40;;;;;;4941574;28;20045;-95
2021/12/09 11:22:19;;;;;;;9.57;2.40;;;7.60;73.00;;;;;;4993544;28;20445;-93
2021/12/09 11:24:48;;;;;;;9.00;2.10;;;8.00;73.30;;;;;;4998594;28;20490;-93
2021/12/09 11:27:22;;;;;;;8.52;2.42;;;8.10;73.40;;;;;;4999256;28;20049;-94
2021/12/09 11:29:52;;;;;;;8.50;2.63;;;8.10;73.30;;;;;;4989041;28;20033;-95
2021/12/09 11:32:55;;;;;;;3.88;1.60;;;8.10;73.40;;;;;;4984706;28;20044;-93
2021/12/09 11:35:30;;;;;;;7.35;1.70;;;8.10;73.40;;;;;;5006324;28;20021;-93
2021/12/09 11:38:06;;;;;;;6.88;2.00;;;8.50;73.70;;;;;;5019919;28;20029;-91
2021/12/09 11:40:47;;;;;;;9.07;2.28;;;8.10;74.10;;;;;;5023591;28;20029;-93
2021/12/09 11:43:20;;;;;;;18.73;5.22;;;8.10;73.50;;;;;;5013358;28;20195;-94
2021/12/09 11:45:49;;;;;;;8.65;2.42;;;8.10;73.60;;;;;;5009544;28;20129;-93
2021/12/09 11:48:16;;;;;;;9.48;3.15;;;8.30;73.70;;;;;;4998160;28;20048;-93
2021/12/09 11:50:49;;;;;;;17.25;5.43;;;8.20;73.70;;;;;;4982797;28;20557;-94
2021/12/09 11:53:19;;;;;;;12.60;4.80;;;8.20;73.80;;;;;;4979810;28;20042;-93
2021/12/09 11:58:56;;;;;;;10.52;3.80;;;8.20;73.80;;;;;;5022505;28;20049;-90
2021/12/09 12:13:08;;;;;;;6.13;2.05;;;8.30;73.90;;;;;;4997539;28;20034;-94
2021/12/09 12:15:54;;;;;;;8.55;2.75;;;8.30;74.00;;;;;;5015229;28;20065;-92
2021/12/09 12:40:41;;;;;;;5.40;1.75;;;8.50;74.30;;;;;;5005706;28;20125;-94
2021/12/09 12:43:13;;;;;;;6.85;2.35;;;8.50;74.40;;;;;;4967991;28;20056;-90
2021/12/09 12:48:58;;;;;;;13.60;2.45;;;8.50;74.40;;;;;;4999503;28;20104;-94
2021/12/09 12:51:31;;;;;;;7.88;2.53;;;8.50;74.70;;;;;;4995339;28;20030;-95
2021/12/09 12:54:26;;;;;;;10.95;2.90;;;8.60;74.60;;;;;;5002662;28;20521;-96
2021/12/09 12:56:57;;;;;;;6.47;2.05;;;8.60;74.60;;;;;;4984973;28;20434;-94
2021/12/09 12:59:38;;;;;;;8.32;3.00;;;8.60;74.60;;;;;;4981726;28;21032;-93
2021/12/09 13:07:35;;;;;;;6.78;2.75;;;8.60;74.70;;;;;;5012865;28;20084;-94
2021/12/09 13:13:14;;;;;;;15.63;2.15;;;8.70;74.90;;;;;;5012732;28;20048;-95
2021/12/09 13:16:07;;;;;;;8.32;2.25;;;8.70;74.80;;;;;;5009751;28;20042;-94
2021/12/09 13:21:54;;;;;;;3.80;2.00;;;8.70;74.90;;;;;;4985037;28;20539;-95
2021/12/09 13:24:51;;;;;;;3.75;1.10;;;8.70;74.90;;;;;;4974072;28;20072;-94
2021/12/09 13:38:50;;;;;;;5.45;1.70;;;9.00;75.20;;;;;;4989614;28;20037;-93
2021/12/09 13:49:36;;;;;;;4.82;2.10;;;8.80;75.20;;;;;;4980594;28;20069;-95
2021/12/09 13:55:20;;;;;;;13.77;1.95;;;8.80;75.30;;;;;;4973756;28;20042;-96
2021/12/09 13:57:57;;;;;;;5.88;2.05;;;8.80;75.30;;;;;;4972637;28;20042;-91
2021/12/09 14:00:26;;;;;;;5.80;1.77;;;8.80;75.30;;;;;;5007511;28;20061;-92
2021/12/09 14:03:03;;;;;;;11.20;1.92;;;8.80;75.40;;;;;;5015197;28;20046;-91
2021/12/09 14:06:06;;;;;;;9.73;1.80;;;8.80;75.50;;;;;;4972483;28;20039;-91
2021/12/09 14:08:43;;;;;;;7.38;2.22;;;8.90;75.60;;;;;;4993522;28;20375;-96
2021/12/09 14:11:33;;;;;;;5.47;1.92;;;8.90;75.50;;;;;;4972137;28;20045;-95
2021/12/09 14:14:12;;;;;;;5.00;2.05;;;8.90;75.60;;;;;;4963933;28;20038;-95
2021/12/09 14:22:02;;;;;;;15.13;3.08;;;8.90;75.70;;;;;;4966480;28;20030;-94
2021/12/09 14:24:32;;;;;;;23.00;6.13;;;8.90;75.70;;;;;;4953511;28;20022;-95
2021/12/09 14:27:09;;;;;;;15.50;5.30;;;9.50;76.10;;;;;;4950291;28;20030;-94
2021/12/09 14:29:34;;;;;;;18.20;6.28;;;9.00;75.80;;;;;;4947906;28;20018;-95
2021/12/09 14:32:06;;;;;;;17.73;5.60;;;9.00;75.80;;;;;;4966381;28;20420;-93
2021/12/09 14:34:49;;;;;;;14.27;3.88;;;9.00;75.80;;;;;;4962255;28;20031;-93